Haven, Wisconsin
Current Conditions -  °F | °C
As of 6:53 AM on Friday 31 Oct 2014 (Local Time) from KSBM Reporting Station
Light Snow Light Snow  
Wind Chill: 22°   Ceiling: 2500
Heat Index: 34°   Visibility: 8mi
Dew Point: 29°   Wind: 24mph
Humidity: 82%   Direction: 350°N
Pressure: 30.12"   Gusts: 31mph
Location:  43.8288°N, 87.7756°W
Report Text: KSBM 311153Z AUTO 35021G27KT 8SM -SN SCT020 BKN025 OVC095 01/M02 A3012 RMK AO2 PK WND 35039/1130 SNB51 SLP205 P0000 60002 70002 T00111017 10061 20011 53018
Loading
Personal Weather Stations






























Interactive Weather Map
Tropical Storm Tracking
New forecast layout! Learn more

10-Day Weather Forecast

Advertisements
Track Severe Weather on mobile